createdAt,value
2018-04-09T00:03:39.169Z,15.90
2018-04-09T00:06:06.907Z,15.90
2018-04-09T00:18:23.230Z,16.20
2018-04-09T00:20:49.763Z,16.00
2018-04-09T00:23:16.200Z,16.20
2018-04-09T00:25:43.048Z,16.00
2018-04-09T00:28:09.265Z,16.40
2018-04-09T00:30:35.497Z,16.20
2018-04-09T00:33:01.788Z,16.30
2018-04-09T00:35:29.043Z,15.90
2018-04-09T00:37:56.129Z,15.40
2018-04-09T00:40:22.773Z,15.60
2018-04-09T00:42:49.022Z,16.00
2018-04-09T00:45:15.275Z,15.60
2018-04-09T00:47:41.868Z,15.80
2018-04-09T00:50:08.120Z,16.00
2018-04-09T00:52:35.799Z,15.80
2018-04-09T00:55:01.982Z,16.00
2018-04-09T00:57:28.191Z,15.50
2018-04-09T00:59:55.838Z,16.50
2018-04-09T01:02:22.404Z,15.70
2018-04-09T01:04:49.030Z,15.50
2018-04-09T01:07:16.014Z,15.60
2018-04-09T01:09:42.942Z,15.50
2018-04-09T01:12:09.168Z,15.60
2018-04-09T01:14:36.206Z,15.40
2018-04-09T01:17:03.133Z,15.30
2018-04-09T01:19:29.739Z,15.30
2018-04-09T01:21:56.367Z,15.00
2018-04-09T01:24:23.000Z,15.30
2018-04-09T01:26:50.327Z,15.30
2018-04-09T01:29:17.282Z,15.00
2018-04-09T01:31:44.201Z,15.00
2018-04-09T01:34:11.181Z,15.00
2018-04-09T01:36:38.138Z,15.50
2018-04-09T01:39:04.658Z,14.80
2018-04-09T01:41:31.298Z,13.30
2018-04-09T01:44:00.177Z,14.90
2018-04-09T01:46:26.790Z,14.80
2018-04-09T01:51:22.634Z,15.20
2018-04-09T01:53:49.562Z,15.00
2018-04-09T01:56:16.504Z,14.90
2018-04-09T01:58:43.453Z,14.90
2018-04-09T02:06:05.921Z,14.80
2018-04-09T02:08:32.494Z,14.80
2018-04-09T02:10:58.686Z,14.80
2018-04-09T02:13:26.049Z,15.00
2018-04-09T02:15:52.999Z,15.00
2018-04-09T02:18:19.943Z,15.10
2018-04-09T02:23:16.094Z,15.10
2018-04-09T02:25:43.109Z,15.10
2018-04-09T02:28:09.338Z,15.30
2018-04-09T02:30:35.540Z,14.40
2018-04-09T02:33:01.754Z,14.80
2018-04-09T02:35:28.698Z,14.60
2018-04-09T02:37:55.325Z,14.90
2018-04-09T02:40:21.832Z,14.60
2018-04-09T02:42:48.834Z,14.50
2018-04-09T02:45:16.893Z,14.50
2018-04-09T02:47:43.890Z,14.70
2018-04-09T02:50:12.006Z,14.80
2018-04-09T03:02:23.341Z,14.70
2018-04-09T03:04:49.939Z,15.10
2018-04-09T03:07:16.274Z,15.10
2018-04-09T03:09:43.029Z,14.80
2018-04-09T03:12:10.759Z,14.70
2018-04-09T03:14:37.988Z,14.80
2018-04-09T03:17:05.109Z,14.90
2018-04-09T03:19:31.889Z,14.60
2018-04-09T03:21:58.120Z,14.60
2018-04-09T03:24:26.145Z,14.60
2018-04-09T03:26:53.930Z,14.50
2018-04-09T03:29:20.854Z,14.30
2018-04-09T03:31:48.723Z,12.00
2018-04-09T03:34:16.543Z,14.10
2018-04-09T03:36:42.771Z,14.30
2018-04-09T03:39:10.724Z,14.00
2018-04-09T03:41:37.669Z,14.20
2018-04-09T03:44:08.543Z,14.10
2018-04-09T03:46:38.100Z,14.40
2018-04-09T03:49:06.909Z,14.40
2018-04-09T03:51:35.639Z,14.50
2018-04-09T03:54:03.343Z,14.50
2018-04-09T03:56:31.349Z,14.80
2018-04-09T03:58:57.937Z,14.30
2018-04-09T04:01:25.937Z,14.10
2018-04-09T04:03:53.867Z,14.00
2018-04-09T04:06:21.550Z,13.80
2018-04-09T04:08:48.634Z,13.70
2018-04-09T04:11:15.625Z,13.70
2018-04-09T04:13:42.589Z,13.60
2018-04-09T04:16:21.027Z,13.90
2018-04-09T04:21:51.652Z,13.80
2018-04-09T04:24:18.688Z,13.90
2018-04-09T04:26:45.684Z,13.90
2018-04-09T04:29:13.045Z,13.80
2018-04-09T04:31:39.635Z,13.50
2018-04-09T04:34:07.602Z,14.00
2018-04-09T04:36:35.247Z,14.20
2018-04-09T04:39:02.050Z,14.20
2018-04-09T04:41:28.331Z,14.40
2018-04-09T04:43:54.535Z,14.10
2018-04-09T04:46:20.731Z,13.70
2018-04-09T04:48:46.994Z,14.00
2018-04-09T04:51:13.845Z,13.60
2018-04-09T04:53:40.886Z,13.40
2018-04-09T04:56:09.875Z,13.20
2018-04-09T04:58:37.211Z,13.60
2018-04-09T05:01:04.232Z,13.70
2018-04-09T05:03:30.476Z,13.30
2018-04-09T05:05:57.038Z,14.00
2018-04-09T05:08:23.229Z,13.70
2018-04-09T05:10:50.307Z,13.60
2018-04-09T05:13:18.588Z,13.90
2018-04-09T05:15:44.828Z,14.30
2018-04-09T05:18:11.429Z,13.80
2018-04-09T05:20:37.728Z,14.60
2018-04-09T05:23:05.611Z,14.40
2018-04-09T05:25:32.091Z,14.30
2018-04-09T05:27:59.790Z,14.30
2018-04-09T05:30:27.201Z,14.40
2018-04-09T05:32:55.656Z,14.10
2018-04-09T05:35:21.856Z,14.20
2018-04-09T05:37:48.936Z,14.50
2018-04-09T05:40:15.184Z,14.30
2018-04-09T05:42:41.477Z,14.20
2018-04-09T05:45:08.411Z,14.50
2018-04-09T05:47:35.425Z,14.60
2018-04-09T05:50:03.159Z,15.00
2018-04-09T05:52:30.059Z,14.80
2018-04-09T05:57:27.814Z,14.70
2018-04-09T05:59:53.980Z,15.00
2018-04-09T06:02:20.226Z,15.10
2018-04-09T06:04:47.067Z,15.10
2018-04-09T06:07:14.846Z,15.20
2018-04-09T06:09:41.050Z,15.00
2018-04-09T06:12:07.648Z,15.30
2018-04-09T06:14:33.937Z,15.20
2018-04-09T06:17:00.573Z,15.20
2018-04-09T06:19:27.625Z,15.60
2018-04-09T06:21:55.020Z,15.70
2018-04-09T06:24:21.299Z,16.10
2018-04-09T06:26:47.870Z,15.90
2018-04-09T06:29:14.508Z,16.30
2018-04-09T06:31:41.732Z,16.20
2018-04-09T06:34:09.507Z,16.10
2018-04-09T06:36:35.742Z,16.10
2018-04-09T06:39:03.817Z,16.30
2018-04-09T06:41:30.260Z,16.70
2018-04-09T06:43:57.359Z,16.30
2018-04-09T06:46:23.695Z,16.10
2018-04-09T06:48:50.154Z,15.90
2018-04-09T06:51:17.215Z,16.40
2018-04-09T06:53:44.976Z,16.70
2018-04-09T06:56:11.961Z,16.50
2018-04-09T06:58:38.869Z,16.20
2018-04-09T07:01:07.259Z,16.60
2018-04-09T07:03:33.480Z,16.60
2018-04-09T07:05:59.708Z,16.60
2018-04-09T07:08:26.046Z,16.60
2018-04-09T07:10:52.265Z,16.50
2018-04-09T07:13:18.502Z,16.40
2018-04-09T07:15:44.724Z,16.30
2018-04-09T07:18:10.922Z,16.30
2018-04-09T07:20:37.900Z,16.40
2018-04-09T07:23:04.123Z,16.40
2018-04-09T07:25:31.936Z,16.50
2018-04-09T07:27:58.149Z,16.70
2018-04-09T07:30:24.431Z,16.80
2018-04-09T07:32:51.398Z,16.90
2018-04-09T07:35:18.778Z,16.90
2018-04-09T07:37:45.011Z,16.90
2018-04-09T07:40:12.015Z,17.10
2018-04-09T07:42:39.354Z,17.40
2018-04-09T07:45:06.632Z,17.60
2018-04-09T07:47:33.698Z,17.80
2018-04-09T07:49:59.939Z,18.10
2018-04-09T07:52:26.590Z,18.30
2018-04-09T07:54:52.805Z,18.50
2018-04-09T07:57:19.289Z,18.50
2018-04-09T07:59:46.184Z,18.50
2018-04-09T08:02:12.423Z,18.60
2018-04-09T08:04:38.634Z,18.50
2018-04-09T08:07:04.872Z,18.60
2018-04-09T08:09:31.981Z,18.80
2018-04-09T08:11:59.561Z,19.00
2018-04-09T08:14:25.806Z,19.10
2018-04-09T08:16:52.802Z,19.30
2018-04-09T08:19:19.426Z,19.40
2018-04-09T08:21:46.380Z,19.50
2018-04-09T08:24:13.659Z,19.60
2018-04-09T08:26:40.634Z,19.80
2018-04-09T08:29:07.748Z,19.90
2018-04-09T08:31:35.239Z,20.10
2018-04-09T08:34:02.185Z,20.00
2018-04-09T08:36:28.383Z,20.60
2018-04-09T08:38:55.425Z,20.70
2018-04-09T08:41:21.650Z,20.90
2018-04-09T08:43:48.635Z,20.70
2018-04-09T08:46:15.221Z,20.70
2018-04-09T08:48:42.828Z,20.70
2018-04-09T08:51:11.839Z,20.60
2018-04-09T08:53:38.098Z,20.50
2018-04-09T08:56:05.156Z,20.50
2018-04-09T08:58:32.278Z,20.50
2018-04-09T09:00:59.380Z,20.60
2018-04-09T09:03:26.329Z,20.60
2018-04-09T09:05:53.281Z,20.80
2018-04-09T09:08:19.508Z,20.70
2018-04-09T09:10:46.509Z,21.20
2018-04-09T09:13:12.684Z,21.60
2018-04-09T09:15:38.958Z,21.40
2018-04-09T09:18:05.168Z,21.50
2018-04-09T09:20:31.400Z,21.50
2018-04-09T09:22:58.161Z,21.60
2018-04-09T09:25:24.388Z,21.60
2018-04-09T09:27:51.328Z,21.50
2018-04-09T09:30:17.567Z,21.40
2018-04-09T09:32:44.091Z,21.60
2018-04-09T09:35:11.020Z,21.90
2018-04-09T09:37:37.273Z,21.90
2018-04-09T09:40:04.374Z,21.90
2018-04-09T09:42:30.677Z,22.10
2018-04-09T09:44:56.911Z,22.30
2018-04-09T09:47:24.064Z,22.50
2018-04-09T09:49:50.903Z,23.10
2018-04-09T09:52:17.130Z,23.10
2018-04-09T09:54:43.339Z,23.50
2018-04-09T09:57:09.519Z,23.80
2018-04-09T09:59:36.485Z,24.70
2018-04-09T10:02:07.756Z,24.60
2018-04-09T10:04:33.996Z,24.30
2018-04-09T10:07:00.200Z,23.80
2018-04-09T10:09:26.384Z,23.40
2018-04-09T10:11:53.331Z,23.40
2018-04-09T10:14:20.343Z,23.50
2018-04-09T10:16:46.538Z,23.50
2018-04-09T10:19:12.760Z,23.70
2018-04-09T10:21:39.002Z,24.10
2018-04-09T10:24:05.199Z,24.70
2018-04-09T10:26:32.142Z,24.80
2018-04-09T10:28:59.824Z,25.10
2018-04-09T10:31:27.072Z,25.20
2018-04-09T10:33:53.287Z,25.10
2018-04-09T10:36:20.528Z,25.40
2018-04-09T10:38:47.177Z,25.90
2018-04-09T10:41:14.152Z,25.80
2018-04-09T10:43:40.358Z,25.70
2018-04-09T10:46:07.299Z,25.40
2018-04-09T10:48:34.238Z,25.10
2018-04-09T10:51:01.189Z,24.90
2018-04-09T10:53:28.208Z,25.70
2018-04-09T10:55:55.285Z,25.70
2018-04-09T10:58:22.228Z,25.60
2018-04-09T11:00:49.198Z,25.40
2018-04-09T11:03:15.458Z,25.40
2018-04-09T11:05:43.296Z,25.20
2018-04-09T11:08:15.147Z,25.10
2018-04-09T11:10:42.164Z,24.80
2018-04-09T11:13:08.411Z,24.80
2018-04-09T11:15:35.410Z,24.50
2018-04-09T11:18:01.640Z,24.50
2018-04-09T11:20:28.515Z,24.50
2018-04-09T11:22:55.381Z,24.80
2018-04-09T11:25:22.430Z,25.80
2018-04-09T11:27:48.655Z,26.10
2018-04-09T11:30:15.593Z,26.30
2018-04-09T11:32:41.809Z,25.80
2018-04-09T11:35:08.018Z,25.60
2018-04-09T11:37:34.474Z,25.40
2018-04-09T11:40:01.479Z,25.20
2018-04-09T11:42:27.706Z,25.30
2018-04-09T11:44:54.606Z,25.50
2018-04-09T11:47:22.592Z,25.80
2018-04-09T11:49:50.138Z,26.20
2018-04-09T11:52:16.365Z,26.20
2018-04-09T11:54:43.403Z,26.30
2018-04-09T11:57:10.520Z,26.30
2018-04-09T11:59:36.704Z,26.40
2018-04-09T12:02:03.652Z,27.40
2018-04-09T12:04:30.573Z,28.50
2018-04-09T12:06:56.824Z,28.50
2018-04-09T12:09:23.784Z,27.70
2018-04-09T12:11:50.750Z,26.90
2018-04-09T12:14:17.037Z,26.90
2018-04-09T12:16:43.252Z,26.70
2018-04-09T12:19:09.458Z,25.90
2018-04-09T12:21:35.662Z,26.00
2018-04-09T12:33:46.973Z,26.10
2018-04-09T12:36:16.747Z,26.50
2018-04-09T12:38:43.532Z,26.40
2018-04-09T12:41:10.544Z,25.50
2018-04-09T12:43:37.594Z,26.10
2018-04-09T12:46:04.860Z,25.00
2018-04-09T12:48:31.096Z,25.30
2018-04-09T12:50:57.671Z,25.60
2018-04-09T12:53:24.348Z,27.10
2018-04-09T12:55:50.642Z,27.50
2018-04-09T12:58:17.543Z,27.00
2018-04-09T13:00:44.575Z,26.40
2018-04-09T13:03:13.767Z,26.20
2018-04-09T13:05:41.036Z,26.00
2018-04-09T13:08:08.267Z,25.90
2018-04-09T13:10:34.488Z,25.70
2018-04-09T13:13:00.720Z,25.50
2018-04-09T13:15:26.956Z,25.50
2018-04-09T13:17:53.427Z,25.50
2018-04-09T13:20:21.464Z,25.60
2018-04-09T13:22:47.687Z,25.60
2018-04-09T13:25:14.829Z,25.60
2018-04-09T13:27:41.146Z,25.40
2018-04-09T13:30:07.388Z,25.30
2018-04-09T13:32:34.642Z,25.00
2018-04-09T13:35:02.531Z,24.80
2018-04-09T13:37:31.285Z,24.40
2018-04-09T13:39:58.228Z,24.10
2018-04-09T13:42:24.461Z,24.10
2018-04-09T13:44:50.737Z,24.10
2018-04-09T13:47:16.985Z,24.00
2018-04-09T13:49:44.063Z,23.60
2018-04-09T13:52:10.580Z,23.60
2018-04-09T13:54:37.918Z,23.40
2018-04-09T13:57:04.928Z,23.50
2018-04-09T13:59:31.421Z,23.50
2018-04-09T14:01:58.371Z,23.70
2018-04-09T14:04:25.341Z,23.90
2018-04-09T14:06:52.331Z,24.20
2018-04-09T14:09:18.522Z,24.20
2018-04-09T14:11:45.027Z,24.20
2018-04-09T14:14:11.425Z,24.20
2018-04-09T14:16:38.574Z,24.30
2018-04-09T14:19:04.833Z,24.60
2018-04-09T14:21:32.577Z,24.50
2018-04-09T14:23:58.842Z,24.50
2018-04-09T14:26:25.835Z,23.90
2018-04-09T14:28:52.108Z,25.60
2018-04-09T14:31:20.034Z,23.80
2018-04-09T14:33:46.490Z,23.70
2018-04-09T14:36:13.580Z,23.60
2018-04-09T14:38:39.819Z,23.40
2018-04-09T14:41:07.091Z,23.30
2018-04-09T14:43:34.482Z,23.20
2018-04-09T14:46:01.673Z,23.00
2018-04-09T14:48:27.869Z,22.90
2018-04-09T14:50:54.116Z,22.80
2018-04-09T14:53:21.091Z,22.80
2018-04-09T14:55:47.522Z,21.50
2018-04-09T14:58:14.459Z,22.70
2018-04-09T15:00:40.659Z,22.80
2018-04-09T15:03:08.051Z,22.60
2018-04-09T15:05:34.251Z,22.80
2018-04-09T15:08:02.147Z,22.80
2018-04-09T15:10:28.460Z,22.70
2018-04-09T15:12:55.263Z,22.70
2018-04-09T15:15:21.542Z,22.70
2018-04-09T15:17:47.718Z,22.20
2018-04-09T15:20:14.840Z,22.80
2018-04-09T15:22:42.178Z,22.60
2018-04-09T15:25:08.418Z,22.60
2018-04-09T15:27:35.780Z,22.60
2018-04-09T15:30:02.020Z,22.60
2018-04-09T15:32:28.611Z,22.50
2018-04-09T15:34:56.565Z,22.60
2018-04-09T15:37:23.502Z,22.60
2018-04-09T15:39:51.339Z,22.60
2018-04-09T15:42:17.991Z,22.60
2018-04-09T15:44:44.198Z,22.50
2018-04-09T15:47:10.541Z,22.70
2018-04-09T15:49:36.743Z,22.40
2018-04-09T15:52:03.345Z,22.40
2018-04-09T15:54:31.151Z,22.40
2018-04-09T16:06:42.425Z,22.50
2018-04-09T16:09:08.944Z,22.10
2018-04-09T16:11:35.380Z,22.10
2018-04-09T16:14:01.884Z,22.00
2018-04-09T16:16:28.131Z,22.10
2018-04-09T16:18:54.781Z,21.80
2018-04-09T16:21:21.025Z,21.60
2018-04-09T16:23:47.263Z,22.00
2018-04-09T16:26:15.164Z,21.90
2018-04-09T16:28:42.121Z,21.80
2018-04-09T16:31:09.168Z,21.70
2018-04-09T16:33:36.558Z,21.60
2018-04-09T16:36:02.831Z,21.50
2018-04-09T16:38:29.089Z,21.40
2018-04-09T16:40:55.661Z,21.30
2018-04-09T16:43:22.642Z,21.30
2018-04-09T16:45:49.244Z,21.30
2018-04-09T16:48:15.490Z,21.30
2018-04-09T16:50:42.647Z,21.50
2018-04-09T16:53:09.955Z,21.30
2018-04-09T16:55:36.145Z,21.10
2018-04-09T16:58:02.346Z,21.20
2018-04-09T17:00:28.573Z,20.80
2018-04-09T17:02:55.033Z,21.00
2018-04-09T17:05:21.270Z,20.80
2018-04-09T17:07:47.846Z,20.90
2018-04-09T17:10:14.462Z,20.90
2018-04-09T17:12:42.093Z,21.00
2018-04-09T17:15:08.294Z,20.90
2018-04-09T17:17:34.481Z,21.20
2018-04-09T17:20:02.513Z,20.90
2018-04-09T17:22:28.815Z,20.90
2018-04-09T17:24:55.238Z,21.10
2018-04-09T17:27:22.336Z,20.90
2018-04-09T17:29:49.942Z,21.00
2018-04-09T17:32:16.171Z,20.80
2018-04-09T17:34:44.416Z,20.90
2018-04-09T17:37:11.128Z,20.60
2018-04-09T17:39:37.865Z,20.80
2018-04-09T17:42:04.138Z,20.80
2018-04-09T17:44:32.108Z,20.40
2018-04-09T17:46:59.123Z,20.40
2018-04-09T17:49:27.241Z,19.90
2018-04-09T17:51:54.087Z,20.10
2018-04-09T17:54:20.868Z,20.40
2018-04-09T17:56:47.363Z,20.10
2018-04-09T17:59:13.942Z,20.40
2018-04-09T18:01:45.609Z,19.50
2018-04-09T18:04:12.556Z,19.60
2018-04-09T18:06:41.952Z,19.80
2018-04-09T18:09:08.160Z,19.50
2018-04-09T18:11:35.349Z,19.50
2018-04-09T18:14:02.789Z,19.60
2018-04-09T18:26:22.262Z,19.30
2018-04-09T18:28:48.900Z,19.20
2018-04-09T18:31:21.616Z,19.20
2018-04-09T18:33:48.800Z,18.60
2018-04-09T18:36:15.085Z,18.60
2018-04-09T18:38:42.627Z,18.90
2018-04-09T18:41:10.286Z,19.10
2018-04-09T18:43:37.690Z,19.00
2018-04-09T18:46:04.903Z,19.00
2018-04-09T18:48:33.775Z,19.10
2018-04-09T18:51:00.781Z,18.70
2018-04-09T18:53:30.872Z,18.70
2018-04-09T18:55:57.476Z,19.20
2018-04-09T18:58:24.698Z,18.80
2018-04-09T19:00:50.888Z,18.90
2018-04-09T19:03:17.873Z,18.90
2018-04-09T19:05:44.976Z,18.90
2018-04-09T19:08:11.739Z,18.90
2018-04-09T19:10:38.365Z,18.80
2018-04-09T19:13:06.075Z,18.80
2018-04-09T19:15:32.291Z,18.70
2018-04-09T19:17:58.592Z,18.70
2018-04-09T19:20:24.917Z,18.80
2018-04-09T19:22:51.897Z,18.80
2018-04-09T19:25:19.219Z,18.70
2018-04-09T19:27:45.506Z,18.60
2018-04-09T19:30:12.476Z,18.70
2018-04-09T19:32:39.516Z,18.80
2018-04-09T19:37:39.942Z,18.40
2018-04-09T19:40:12.860Z,18.70
2018-04-09T19:42:39.603Z,18.70
2018-04-09T19:45:12.833Z,18.50
2018-04-09T19:47:39.617Z,18.40
2018-04-09T19:50:08.008Z,18.40
2018-04-09T19:52:34.873Z,18.40
2018-04-09T19:55:01.831Z,18.60
2018-04-09T19:57:29.177Z,18.60
2018-04-09T19:59:55.977Z,18.60
2018-04-09T20:02:23.457Z,18.50
2018-04-09T20:04:50.801Z,18.60
2018-04-09T20:07:18.274Z,18.60
2018-04-09T20:09:45.084Z,18.60
2018-04-09T20:12:11.772Z,18.60
2018-04-09T20:14:38.590Z,18.60
2018-04-09T20:17:06.505Z,18.60
2018-04-09T20:19:34.343Z,18.50
2018-04-09T20:22:01.498Z,18.60
2018-04-09T20:24:29.361Z,18.50
2018-04-09T20:26:57.221Z,18.50
2018-04-09T20:29:24.915Z,18.80
2018-04-09T20:31:51.799Z,18.00
2018-04-09T20:34:19.956Z,18.30
2018-04-09T20:36:47.409Z,18.40
2018-04-09T20:39:15.742Z,18.80
2018-04-09T20:41:42.689Z,18.70
2018-04-09T20:44:10.315Z,18.20
2018-04-09T20:46:37.046Z,18.00
2018-04-09T20:49:04.859Z,17.80
2018-04-09T20:54:00.530Z,17.60
2018-04-09T20:56:26.854Z,17.80
2018-04-09T20:58:53.360Z,17.60
2018-04-09T21:01:20.135Z,17.40
2018-04-09T21:03:47.183Z,17.90
2018-04-09T21:06:13.436Z,18.10
2018-04-09T21:08:41.395Z,17.90
2018-04-09T21:11:09.043Z,18.20
2018-04-09T21:13:35.268Z,18.10
2018-04-09T21:16:02.253Z,17.90
2018-04-09T21:18:28.490Z,17.60
2018-04-09T21:20:55.983Z,17.00
2018-04-09T21:23:22.886Z,17.70
2018-04-09T21:25:49.837Z,17.80
2018-04-09T21:28:16.824Z,17.60
2018-04-09T21:30:43.922Z,17.60
2018-04-09T21:33:10.270Z,17.50
2018-04-09T21:35:37.311Z,17.40
2018-04-09T21:38:07.853Z,17.40
2018-04-09T21:40:34.497Z,17.40
2018-04-09T21:43:01.423Z,17.30
2018-04-09T21:45:27.871Z,17.20
2018-04-09T21:47:54.332Z,17.30
2018-04-09T21:50:21.712Z,17.40
2018-04-09T21:52:47.985Z,17.20
2018-04-09T21:55:14.364Z,17.40
2018-04-09T21:57:41.232Z,17.10
2018-04-09T22:00:07.492Z,17.30
2018-04-09T22:02:33.726Z,17.30
2018-04-09T22:05:00.044Z,17.20
2018-04-09T22:17:11.277Z,17.30
2018-04-09T22:19:39.114Z,17.30
2018-04-09T22:22:05.362Z,17.20
2018-04-09T22:24:31.632Z,17.10
2018-04-09T22:26:57.838Z,16.90
2018-04-09T22:29:24.306Z,16.90
2018-04-09T22:31:50.542Z,16.90
2018-04-09T22:34:17.504Z,16.80
2018-04-09T22:36:44.440Z,16.80
2018-04-09T22:39:12.020Z,16.70
2018-04-09T22:41:38.921Z,16.60
2018-04-09T22:44:05.173Z,16.30
2018-04-09T22:46:32.101Z,16.50
2018-04-09T22:48:58.330Z,16.50
2018-04-09T22:51:24.551Z,16.90
2018-04-09T22:53:50.781Z,16.60
2018-04-09T22:56:16.990Z,16.80
2018-04-09T22:58:43.364Z,16.80
2018-04-09T23:01:10.386Z,16.80
2018-04-09T23:03:37.412Z,16.80
2018-04-09T23:06:03.638Z,16.50
2018-04-09T23:08:30.505Z,16.90
2018-04-09T23:10:56.721Z,16.80
2018-04-09T23:13:23.729Z,17.20
2018-04-09T23:25:40.678Z,16.90
2018-04-09T23:37:52.956Z,16.50
2018-04-09T23:40:19.939Z,16.80
2018-04-09T23:42:47.375Z,16.70
2018-04-09T23:45:14.364Z,16.60
2018-04-09T23:47:40.565Z,16.60
2018-04-09T23:50:06.792Z,16.90
2018-04-09T23:52:33.003Z,16.60
2018-04-09T23:54:59.930Z,16.60
2018-04-09T23:57:26.485Z,16.60
2018-04-09T23:59:53.928Z,16.60
